Time;durP1;ratioP1;P1;durP2;ratioP2;P2;SDS_P1;SDS_P2;PMS_P1;PMS_P2;Temp;Humidity;BMP_temperature;BMP_pressure;BME280_temperature;BME280_humidity;BME280_pressure;Samples;Min_cycle;Max_cycle;Signal;HPM_P1;HPM_P2
2023/03/03 00:01:40;;;;;;;4.40;2.33;;;0.60;99.90;;;;;;5058127;28;20013;-86
2023/03/03 00:04:06;;;;;;;5.57;2.17;;;0.70;99.90;;;;;;5072069;28;20051;-87
2023/03/03 00:06:32;;;;;;;5.18;3.25;;;0.70;99.90;;;;;;5057921;28;20081;-81
2023/03/03 00:08:58;;;;;;;4.38;2.30;;;0.70;99.90;;;;;;5074448;28;20033;-85
2023/03/03 00:11:24;;;;;;;3.03;2.53;;;0.80;99.90;;;;;;5074283;28;20382;-83
2023/03/03 00:13:55;;;;;;;9.60;2.33;;;0.70;99.90;;;;;;5058144;28;20025;-84
2023/03/03 00:16:36;;;;;;;6.60;2.60;;;0.70;99.90;;;;;;5064897;28;20017;-85
2023/03/03 00:19:11;;;;;;;8.27;2.67;;;0.70;99.90;;;;;;5055111;28;20025;-86
2023/03/03 00:21:44;;;;;;;4.90;1.95;;;0.70;99.90;;;;;;5049818;28;20089;-86
2023/03/03 00:24:38;;;;;;;4.95;2.38;;;0.70;99.90;;;;;;5067535;28;20363;-87
2023/03/03 00:27:29;;;;;;;6.03;2.47;;;0.70;99.90;;;;;;5050813;28;20071;-88
2023/03/03 00:29:57;;;;;;;10.13;2.78;;;0.70;99.90;;;;;;5033795;28;20048;-89
2023/03/03 00:32:33;;;;;;;3.85;2.20;;;0.80;99.90;;;;;;5044377;28;20538;-90
2023/03/03 00:35:37;;;;;;;4.80;1.92;;;0.80;99.90;;;;;;5049206;28;20021;-86
2023/03/03 00:38:19;;;;;;;10.15;3.53;;;0.80;99.90;;;;;;5065464;28;20101;-81
2023/03/03 00:40:45;;;;;;;6.00;2.03;;;0.80;99.90;;;;;;5033891;28;20510;-79
2023/03/03 00:43:17;;;;;;;4.97;2.03;;;0.80;99.90;;;;;;5053620;28;20387;-81
2023/03/03 00:45:46;;;;;;;8.18;3.15;;;0.80;99.90;;;;;;5053713;28;20031;-80
2023/03/03 00:48:41;;;;;;;5.80;2.10;;;0.70;99.90;;;;;;5052966;28;20036;-81
2023/03/03 00:51:22;;;;;;;6.22;2.05;;;0.60;99.90;;;;;;5034389;28;20382;-80
2023/03/03 00:53:49;;;;;;;5.97;2.15;;;0.60;99.90;;;;;;5036741;28;20386;-82
2023/03/03 00:56:14;;;;;;;4.85;1.92;;;0.60;99.90;;;;;;5042140;28;20021;-82
2023/03/03 00:58:41;;;;;;;6.18;1.60;;;0.50;99.90;;;;;;5057273;28;20029;-82
2023/03/03 01:01:07;;;;;;;8.98;2.80;;;0.50;99.90;;;;;;5035450;28;20024;-79
2023/03/03 01:03:33;;;;;;;7.18;1.40;;;0.50;99.90;;;;;;5054725;28;20061;-81
2023/03/03 01:05:59;;;;;;;5.30;1.77;;;0.50;99.90;;;;;;5055478;28;20509;-80
2023/03/03 01:08:28;;;;;;;5.18;1.88;;;0.60;99.90;;;;;;5052519;28;20390;-82
2023/03/03 01:10:56;;;;;;;6.28;2.15;;;0.60;99.90;;;;;;5053061;28;20025;-80
2023/03/03 01:13:27;;;;;;;9.27;3.08;;;0.60;99.90;;;;;;5054168;28;20701;-82
2023/03/03 01:15:56;;;;;;;9.68;1.67;;;0.60;99.90;;;;;;5036790;28;20095;-82
2023/03/03 01:18:22;;;;;;;4.10;2.22;;;0.60;99.90;;;;;;5055959;28;20027;-80
2023/03/03 01:20:47;;;;;;;9.70;2.20;;;0.60;99.90;;;;;;5035671;28;20112;-81
2023/03/03 01:23:13;;;;;;;3.85;2.10;;;0.60;99.90;;;;;;5054714;28;20032;-81
2023/03/03 01:25:39;;;;;;;10.48;2.20;;;0.60;99.90;;;;;;5054103;28;20016;-80
2023/03/03 01:28:05;;;;;;;5.88;2.08;;;0.50;99.90;;;;;;5055388;28;20098;-81
2023/03/03 01:30:31;;;;;;;6.68;3.28;;;0.50;99.90;;;;;;5064692;28;20045;-80
2023/03/03 01:32:57;;;;;;;6.40;2.30;;;0.40;99.90;;;;;;5064520;28;20017;-82
2023/03/03 01:35:23;;;;;;;4.10;1.88;;;0.40;99.90;;;;;;5057650;28;20096;-81
2023/03/03 01:37:49;;;;;;;6.85;2.28;;;0.30;99.90;;;;;;5047965;28;20044;-82
2023/03/03 01:40:20;;;;;;;3.88;1.88;;;0.40;99.90;;;;;;5054683;28;20001;-81
2023/03/03 01:42:46;;;;;;;5.30;1.77;;;0.30;99.90;;;;;;5044352;28;20021;-82
2023/03/03 01:45:13;;;;;;;4.75;2.03;;;0.30;99.90;;;;;;5053837;28;20028;-81
2023/03/03 01:47:41;;;;;;;;;;;0.30;99.90;;;;;;5058618;28;20029;-83
2023/03/03 01:50:13;;;;;;;3.47;2.20;;;0.30;99.90;;;;;;5055601;28;20285;-82
2023/03/03 01:52:45;;;;;;;7.85;2.97;;;0.30;99.90;;;;;;5052732;28;20440;-82
2023/03/03 01:55:18;;;;;;;3.60;1.65;;;0.30;99.90;;;;;;5052903;28;20029;-82
2023/03/03 01:57:57;;;;;;;3.35;1.98;;;0.30;99.90;;;;;;5035874;28;20028;-82
2023/03/03 02:00:23;;;;;;;6.28;2.25;;;0.30;99.90;;;;;;5069077;28;20043;-82
2023/03/03 02:02:50;;;;;;;4.05;1.80;;;0.40;99.90;;;;;;5063314;28;20032;-81
2023/03/03 02:05:16;;;;;;;6.80;3.40;;;0.40;99.90;;;;;;5037300;28;20493;-81
2023/03/03 02:07:43;;;;;;;3.95;2.38;;;0.40;99.90;;;;;;5053340;28;20417;-82
2023/03/03 02:10:15;;;;;;;3.80;2.83;;;0.40;99.90;;;;;;5052393;28;20021;-81
2023/03/03 02:12:47;;;;;;;3.70;2.13;;;0.40;99.90;;;;;;5043416;28;20032;-81
2023/03/03 02:15:31;;;;;;;6.50;2.63;;;0.30;99.90;;;;;;5047223;28;20049;-81
2023/03/03 02:18:11;;;;;;;5.07;2.63;;;0.40;99.90;;;;;;5033469;28;20025;-80
2023/03/03 02:20:48;;;;;;;6.18;2.47;;;0.40;99.90;;;;;;5046812;28;20445;-79
2023/03/03 02:23:28;;;;;;;5.53;2.33;;;0.40;99.90;;;;;;5051426;28;20163;-81
2023/03/03 02:25:57;;;;;;;8.25;3.33;;;0.40;99.90;;;;;;5042577;28;20036;-81
2023/03/03 02:28:27;;;;;;;8.48;4.55;;;0.40;99.90;;;;;;5053853;28;20037;-81
2023/03/03 02:30:54;;;;;;;6.75;3.00;;;0.50;99.90;;;;;;5051755;28;20025;-80
2023/03/03 02:33:21;;;;;;;7.65;2.58;;;0.50;99.90;;;;;;5053169;28;20394;-82
2023/03/03 02:35:47;;;;;;;4.55;2.50;;;0.50;99.90;;;;;;5052268;28;20021;-80
2023/03/03 02:38:36;;;;;;;6.95;2.47;;;0.50;99.90;;;;;;5038957;28;20033;-80
2023/03/03 02:41:08;;;;;;;5.60;2.83;;;0.40;99.90;;;;;;5050960;28;20457;-81
2023/03/03 02:43:49;;;;;;;5.00;3.00;;;0.40;99.90;;;;;;5049417;28;20029;-80
2023/03/03 02:46:15;;;;;;;5.60;3.05;;;0.30;99.90;;;;;;5044079;28;20017;-81
2023/03/03 02:48:41;;;;;;;4.00;2.78;;;0.20;99.90;;;;;;5054912;28;20375;-80
2023/03/03 02:51:06;;;;;;;7.07;3.25;;;0.20;99.90;;;;;;5037231;28;20029;-81
2023/03/03 02:53:32;;;;;;;5.82;2.97;;;0.30;99.90;;;;;;5037303;28;20029;-81
2023/03/03 02:55:58;;;;;;;6.72;3.80;;;0.20;99.90;;;;;;5056156;28;20040;-79
2023/03/03 02:58:24;;;;;;;6.68;2.58;;;0.20;99.90;;;;;;5057102;28;20025;-81
2023/03/03 03:00:50;;;;;;;5.85;3.30;;;0.20;99.90;;;;;;5054077;28;20056;-81
2023/03/03 03:03:16;;;;;;;9.70;3.40;;;0.20;99.90;;;;;;5053927;28;20152;-82
2023/03/03 03:05:41;;;;;;;9.60;3.05;;;0.30;99.90;;;;;;5055216;28;20075;-80
2023/03/03 03:08:07;;;;;;;7.30;3.55;;;0.30;99.90;;;;;;5037301;28;20033;-80
2023/03/03 03:10:34;;;;;;;9.15;3.40;;;0.30;99.90;;;;;;5057144;28;20017;-80
2023/03/03 03:12:59;;;;;;;5.82;2.75;;;0.30;99.90;;;;;;5067580;28;20029;-80
2023/03/03 03:15:25;;;;;;;9.88;4.78;;;0.30;99.90;;;;;;5067238;28;20132;-82
2023/03/03 03:17:51;;;;;;;4.57;2.67;;;0.30;99.90;;;;;;5062505;28;20029;-80
2023/03/03 03:20:17;;;;;;;6.85;3.83;;;0.30;99.90;;;;;;5053521;28;20021;-81
2023/03/03 03:22:43;;;;;;;8.27;3.80;;;0.30;99.90;;;;;;5036195;28;20107;-81
2023/03/03 03:25:09;;;;;;;6.88;3.38;;;0.30;99.90;;;;;;5054888;28;20465;-81
2023/03/03 03:27:35;;;;;;;5.15;3.05;;;0.30;99.90;;;;;;5045349;28;20036;-82
2023/03/03 03:30:01;;;;;;;9.63;4.22;;;0.30;99.90;;;;;;5040469;28;20024;-81
2023/03/03 03:32:27;;;;;;;5.53;3.28;;;0.30;99.90;;;;;;5056304;28;20021;-79
2023/03/03 03:34:53;;;;;;;8.82;4.10;;;0.30;99.90;;;;;;5056303;28;20419;-81
2023/03/03 03:37:18;;;;;;;7.35;3.38;;;0.30;99.90;;;;;;5054371;28;20029;-81
2023/03/03 03:39:44;;;;;;;8.70;3.20;;;0.30;99.90;;;;;;5054310;28;20021;-80
2023/03/03 03:42:10;;;;;;;7.20;3.33;;;0.30;99.90;;;;;;5033990;28;20064;-80
2023/03/03 03:44:36;;;;;;;7.93;3.53;;;0.30;99.90;;;;;;5054527;28;20147;-81
2023/03/03 03:47:02;;;;;;;9.30;3.78;;;0.30;99.90;;;;;;5054642;28;20032;-80
2023/03/03 03:49:28;;;;;;;8.88;3.15;;;0.30;99.90;;;;;;5054566;28;20133;-79
2023/03/03 03:51:54;;;;;;;10.57;3.35;;;0.30;99.90;;;;;;5057990;28;20040;-81
2023/03/03 03:54:20;;;;;;;8.88;3.78;;;0.30;99.90;;;;;;5055165;28;20529;-80
2023/03/03 03:56:45;;;;;;;5.88;3.25;;;0.20;99.90;;;;;;5053779;28;20028;-80
2023/03/03 03:59:11;;;;;;;10.50;5.00;;;0.20;99.90;;;;;;5053963;28;20386;-81
2023/03/03 04:01:37;;;;;;;12.45;3.35;;;0.20;99.90;;;;;;5052934;28;20021;-81
2023/03/03 04:04:03;;;;;;;8.40;3.88;;;0.20;99.90;;;;;;5054268;28;20021;-80
2023/03/03 04:06:30;;;;;;;8.75;3.13;;;0.20;99.90;;;;;;5054284;28;20374;-81
2023/03/03 04:08:56;;;;;;;7.25;3.05;;;0.20;99.90;;;;;;5052393;28;20120;-82
2023/03/03 04:11:22;;;;;;;9.60;3.33;;;0.20;99.90;;;;;;5054546;28;20092;-81
2023/03/03 04:13:48;;;;;;;8.27;2.20;;;0.20;99.90;;;;;;5057481;28;20067;-80
2023/03/03 04:16:14;;;;;;;8.75;2.92;;;0.20;99.90;;;;;;5068138;28;20064;-81
2023/03/03 04:18:41;;;;;;;8.48;3.08;;;0.20;99.90;;;;;;5054826;28;20366;-80
2023/03/03 04:21:13;;;;;;;12.38;3.42;;;0.20;99.90;;;;;;5054275;28;20018;-81
2023/03/03 04:23:39;;;;;;;9.65;4.07;;;0.20;99.90;;;;;;5047092;28;20028;-81
2023/03/03 04:26:05;;;;;;;6.68;3.42;;;0.20;99.90;;;;;;5045598;28;20140;-80
2023/03/03 04:28:31;;;;;;;7.65;3.33;;;0.20;99.90;;;;;;5047947;28;20084;-80
2023/03/03 04:30:57;;;;;;;11.98;3.63;;;0.20;99.90;;;;;;5053772;28;20043;-81
2023/03/03 04:33:23;;;;;;;9.88;3.33;;;0.20;99.90;;;;;;5035884;28;20024;-80
2023/03/03 04:35:50;;;;;;;11.60;4.55;;;0.20;99.90;;;;;;5053964;28;20021;-81
2023/03/03 04:38:16;;;;;;;6.00;3.63;;;0.20;99.90;;;;;;5033260;28;20083;-81
2023/03/03 04:40:42;;;;;;;6.22;3.95;;;0.20;99.90;;;;;;5053154;28;20025;-82
2023/03/03 04:43:11;;;;;;;6.72;3.63;;;0.20;99.90;;;;;;5053392;28;20039;-82
2023/03/03 04:45:37;;;;;;;7.78;3.13;;;0.20;99.90;;;;;;5050924;28;20083;-82
2023/03/03 04:48:03;;;;;;;15.25;3.95;;;0.20;99.90;;;;;;5036102;28;20033;-81
2023/03/03 04:50:29;;;;;;;8.05;3.63;;;0.20;99.90;;;;;;5035224;28;20017;-82
2023/03/03 04:52:55;;;;;;;7.90;3.88;;;0.20;99.90;;;;;;5053555;28;20027;-81
2023/03/03 04:55:21;;;;;;;16.88;5.05;;;0.20;99.90;;;;;;5057706;28;20038;-82
2023/03/03 04:57:47;;;;;;;5.32;2.83;;;0.20;99.90;;;;;;5053237;28;20025;-80
2023/03/03 05:00:14;;;;;;;11.18;3.30;;;0.20;99.90;;;;;;5052605;28;20048;-81
2023/03/03 05:02:40;;;;;;;10.87;4.20;;;0.20;99.90;;;;;;5052996;28;20067;-81
2023/03/03 05:05:08;;;;;;;8.20;3.28;;;0.20;99.90;;;;;;5052956;28;20258;-80
2023/03/03 05:07:37;;;;;;;6.45;3.88;;;0.20;99.90;;;;;;5051991;28;20029;-80
2023/03/03 05:10:03;;;;;;;8.30;3.95;;;0.30;99.90;;;;;;5052952;28;20028;-80
2023/03/03 05:12:29;;;;;;;13.13;5.43;;;0.30;99.90;;;;;;5052510;28;20350;-82
2023/03/03 05:14:55;;;;;;;8.00;3.58;;;0.20;99.90;;;;;;5052680;28;20065;-82
2023/03/03 05:17:21;;;;;;;6.72;4.03;;;0.20;99.90;;;;;;5053136;28;20017;-82
2023/03/03 05:19:47;;;;;;;11.82;4.00;;;0.20;99.90;;;;;;5053926;28;20029;-81
2023/03/03 05:22:18;;;;;;;10.13;3.85;;;0.20;99.90;;;;;;5053641;28;20059;-82
2023/03/03 05:24:48;;;;;;;9.98;3.78;;;0.20;99.90;;;;;;5053214;28;20017;-81
2023/03/03 05:27:14;;;;;;;6.60;3.63;;;0.20;99.90;;;;;;5052595;28;20489;-82
2023/03/03 05:29:41;;;;;;;10.87;4.50;;;0.20;99.90;;;;;;5026647;28;20071;-81
2023/03/03 05:32:07;;;;;;;10.73;4.28;;;0.30;99.90;;;;;;5050604;28;20028;-81
2023/03/03 05:34:32;;;;;;;14.57;4.13;;;0.30;99.90;;;;;;5056857;28;20798;-82
2023/03/03 05:36:58;;;;;;;8.45;3.67;;;0.30;99.90;;;;;;5039668;28;20033;-81
2023/03/03 05:39:24;;;;;;;10.02;3.92;;;0.30;99.90;;;;;;5066287;28;20020;-83
2023/03/03 05:41:50;;;;;;;9.30;3.08;;;0.30;99.90;;;;;;5069696;28;20025;-82
2023/03/03 05:44:16;;;;;;;8.50;3.20;;;0.30;99.90;;;;;;5060444;28;20470;-81
2023/03/03 05:46:42;;;;;;;11.18;2.53;;;0.30;99.90;;;;;;5054443;28;20442;-81
2023/03/03 05:49:08;;;;;;;9.02;3.10;;;0.30;99.90;;;;;;5053430;28;20397;-86
2023/03/03 05:51:34;;;;;;;11.52;3.33;;;0.30;99.90;;;;;;5053512;28;20052;-86
2023/03/03 05:54:00;;;;;;;6.43;3.30;;;0.30;99.90;;;;;;5039421;28;20025;-83
2023/03/03 05:56:26;;;;;;;10.80;3.35;;;0.30;99.90;;;;;;5032824;28;20049;-83
2023/03/03 05:58:52;;;;;;;14.05;3.60;;;0.40;99.90;;;;;;5059307;28;20512;-83
2023/03/03 06:01:18;;;;;;;9.23;3.85;;;0.30;99.90;;;;;;5036182;28;20144;-81
2023/03/03 06:03:44;;;;;;;9.40;2.95;;;0.30;99.90;;;;;;5053198;28;20021;-82
2023/03/03 06:06:11;;;;;;;13.30;4.78;;;0.30;99.90;;;;;;5053888;28;20458;-82
2023/03/03 06:08:37;;;;;;;8.52;3.58;;;0.40;99.90;;;;;;5053215;28;20116;-82
2023/03/03 06:11:03;;;;;;;11.35;4.55;;;0.40;99.90;;;;;;5034665;28;20630;-84
2023/03/03 06:13:29;;;;;;;6.80;2.95;;;0.40;99.90;;;;;;5052956;28;20136;-83
2023/03/03 06:16:00;;;;;;;7.32;3.38;;;0.40;99.90;;;;;;5053255;28;20041;-82
2023/03/03 06:18:26;;;;;;;9.38;2.78;;;0.40;99.90;;;;;;5029137;28;20017;-83
2023/03/03 06:20:53;;;;;;;14.05;4.93;;;0.40;99.90;;;;;;5059848;28;20036;-82
2023/03/03 06:23:19;;;;;;;5.18;2.53;;;0.40;99.90;;;;;;5059457;28;20025;-83
2023/03/03 06:25:46;;;;;;;7.95;3.08;;;0.40;99.90;;;;;;5054827;28;20140;-83
2023/03/03 06:28:15;;;;;;;4.50;1.83;;;0.40;99.90;;;;;;5022359;28;20080;-83
2023/03/03 06:30:41;;;;;;;11.45;2.92;;;0.40;99.90;;;;;;5038551;28;20028;-83
2023/03/03 06:33:07;;;;;;;5.05;2.13;;;0.40;99.90;;;;;;5059149;28;20020;-81
2023/03/03 06:35:33;;;;;;;3.42;1.88;;;0.50;99.90;;;;;;5060033;28;20024;-84
2023/03/03 06:37:59;;;;;;;3.13;2.22;;;0.50;99.90;;;;;;5065028;28;20021;-83
2023/03/03 06:40:25;;;;;;;4.55;2.25;;;0.40;99.90;;;;;;5058457;28;20089;-82
2023/03/03 06:42:50;;;;;;;14.27;3.13;;;0.50;99.90;;;;;;5059398;28;20031;-82
2023/03/03 06:45:16;;;;;;;10.98;3.92;;;0.50;99.90;;;;;;5059804;28;20017;-82
2023/03/03 06:50:54;;;;;;;6.45;2.50;;;0.50;99.90;;;;;;5056001;28;20384;-82
2023/03/03 06:53:21;;;;;;;16.33;2.90;;;0.50;99.90;;;;;;5050739;28;20025;-82
2023/03/03 06:55:47;;;;;;;9.90;2.25;;;0.50;99.90;;;;;;5058182;28;20079;-83
2023/03/03 06:58:19;;;;;;;4.90;2.40;;;0.50;99.90;;;;;;5058299;28;20194;-82
2023/03/03 07:00:53;;;;;;;8.63;2.08;;;0.50;99.90;;;;;;5063430;28;20036;-82
2023/03/03 07:03:23;;;;;;;8.85;2.38;;;0.60;99.90;;;;;;5058094;28;20021;-83
2023/03/03 07:05:51;;;;;;;15.45;2.28;;;0.60;99.90;;;;;;5056950;28;20044;-84
2023/03/03 07:08:20;;;;;;;6.10;2.80;;;0.60;99.90;;;;;;5038297;28;20037;-84
2023/03/03 07:10:47;;;;;;;1.30;1.13;;;0.50;99.90;;;;;;5058195;28;20434;-85
2023/03/03 07:13:30;;;;;;;5.32;1.92;;;0.50;99.90;;;;;;5058072;28;20021;-84
2023/03/03 07:15:59;;;;;;;8.70;3.28;;;0.60;99.90;;;;;;5040212;28;20048;-85
2023/03/03 07:18:45;;;;;;;6.72;2.47;;;0.50;99.90;;;;;;5046677;28;20032;-85
2023/03/03 07:21:19;;;;;;;17.20;3.53;;;0.50;99.90;;;;;;5040376;28;20033;-85
2023/03/03 07:23:48;;;;;;;9.32;2.50;;;0.50;99.90;;;;;;5036688;28;20029;-85
2023/03/03 07:26:22;;;;;;;11.13;2.95;;;0.50;99.90;;;;;;5058527;28;20021;-85
2023/03/03 07:29:16;;;;;;;9.57;2.55;;;0.50;99.90;;;;;;5065861;28;20037;-85
2023/03/03 07:31:46;;;;;;;7.47;2.55;;;0.50;99.90;;;;;;5059265;28;20025;-83
2023/03/03 07:34:21;;;;;;;4.55;2.10;;;0.50;99.90;;;;;;5057384;28;20021;-84
2023/03/03 07:36:52;;;;;;;8.52;2.03;;;0.50;99.90;;;;;;5055654;28;20151;-83
2023/03/03 07:39:34;;;;;;;5.10;1.60;;;0.50;99.90;;;;;;5038334;28;20037;-84
2023/03/03 07:42:16;;;;;;;6.65;3.17;;;0.60;99.90;;;;;;5039142;28;20021;-84
2023/03/03 07:44:42;;;;;;;6.43;1.83;;;0.60;99.90;;;;;;5026553;28;20021;-84
2023/03/03 07:47:21;;;;;;;5.10;2.20;;;0.50;99.90;;;;;;5041529;28;20041;-84
2023/03/03 07:49:49;;;;;;;5.90;2.20;;;0.60;99.90;;;;;;5026362;28;20029;-82
2023/03/03 07:52:29;;;;;;;;;;;0.60;99.90;;;;;;5036780;28;20047;-83
2023/03/03 07:54:59;;;;;;;8.45;2.45;;;0.60;99.90;;;;;;5057393;28;19917;-82
2023/03/03 07:57:36;;;;;;;3.05;2.25;;;0.60;99.90;;;;;;5059075;28;20021;-82
2023/03/03 08:00:39;;;;;;;9.27;1.98;;;0.60;99.90;;;;;;5064732;28;20017;-92
2023/03/03 08:03:19;;;;;;;6.68;2.08;;;0.60;99.90;;;;;;5045294;28;20029;-89
2023/03/03 08:06:28;;;;;;;7.07;3.00;;;0.70;99.90;;;;;;5077478;28;20027;-88
2023/03/03 08:09:01;;;;;;;6.68;2.78;;;0.70;99.90;;;;;;5047457;28;20061;-85
2023/03/03 08:11:27;;;;;;;7.63;2.38;;;0.70;99.90;;;;;;5062018;28;20017;-84
2023/03/03 08:13:54;;;;;;;8.00;1.88;;;0.80;99.90;;;;;;5044540;28;20049;-85
2023/03/03 08:16:39;;;;;;;7.28;3.95;;;0.80;99.90;;;;;;5066221;28;20013;-84
2023/03/03 08:19:06;;;;;;;11.18;2.80;;;0.90;99.90;;;;;;5043949;28;20079;-84
2023/03/03 08:21:34;;;;;;;8.93;3.30;;;1.00;99.90;;;;;;5054770;28;20013;-83
2023/03/03 08:24:02;;;;;;;8.13;3.97;;;1.10;99.90;;;;;;5059809;28;20031;-88
2023/03/03 08:26:31;;;;;;;4.88;2.10;;;1.10;99.90;;;;;;5062289;28;20032;-92
2023/03/03 08:28:57;;;;;;;7.68;2.97;;;1.00;99.90;;;;;;5041023;28;20025;-90
2023/03/03 08:31:28;;;;;;;7.18;2.40;;;1.00;99.90;;;;;;5040970;28;20014;-93
2023/03/03 09:48:23;;;;;;;8.40;4.03;;;2.70;99.90;;;;;;5615095;23;20527;-82
2023/03/03 09:51:11;;;;;;;7.50;3.25;;;2.70;99.90;;;;;;4955930;29;20023;-86
2023/03/03 09:53:59;;;;;;;11.65;3.63;;;2.80;99.90;;;;;;4957609;28;20039;-87
2023/03/03 09:56:36;;;;;;;12.43;5.57;;;2.80;99.90;;;;;;4941759;29;20109;-87
2023/03/03 09:59:35;;;;;;;8.20;3.95;;;2.70;99.90;;;;;;4963072;29;20499;-87
2023/03/03 10:02:39;;;;;;;7.60;3.17;;;2.60;99.90;;;;;;4957633;28;20058;-90
2023/03/03 10:05:30;;;;;;;9.25;2.92;;;2.50;99.90;;;;;;4943770;29;20183;-88
2023/03/03 10:08:17;;;;;;;10.43;3.05;;;2.30;99.90;;;;;;4959314;28;20043;-88
2023/03/03 10:10:57;;;;;;;5.10;2.40;;;2.20;99.90;;;;;;4916606;29;20054;-85
2023/03/03 10:13:49;;;;;;;6.85;2.90;;;2.20;99.90;;;;;;4916235;29;20517;-83
2023/03/03 10:16:36;;;;;;;5.20;2.80;;;2.20;99.90;;;;;;4917476;29;20585;-82
2023/03/03 10:19:14;;;;;;;5.60;2.33;;;2.20;99.90;;;;;;4918255;29;20028;-88
2023/03/03 10:22:19;;;;;;;4.55;2.20;;;2.20;99.90;;;;;;4910544;29;20122;-90
2023/03/03 10:24:59;;;;;;;8.35;2.92;;;2.10;99.90;;;;;;4932116;29;20039;-87
2023/03/03 10:27:42;;;;;;;7.25;3.13;;;2.10;99.90;;;;;;4944447;29;20064;-88
2023/03/03 10:30:21;;;;;;;3.97;1.83;;;2.20;99.90;;;;;;4911718;29;20033;-88
2023/03/03 10:33:13;;;;;;;5.70;2.85;;;2.30;99.90;;;;;;4874735;29;20098;-86
2023/03/03 10:36:03;;;;;;;8.32;2.75;;;2.40;99.90;;;;;;4872960;29;20037;-88
2023/03/03 10:38:48;;;;;;;5.90;2.33;;;2.80;99.90;;;;;;4882774;29;20041;-88
2023/03/03 10:41:25;;;;;;;7.88;2.17;;;2.90;99.90;;;;;;4871294;29;20061;-89
2023/03/03 10:44:28;;;;;;;8.95;2.70;;;3.10;99.90;;;;;;4886568;29;20060;-91
2023/03/03 10:47:17;;;;;;;6.60;2.00;;;3.20;99.90;;;;;;4894997;29;20049;-90
2023/03/03 10:49:52;;;;;;;6.72;2.35;;;3.20;99.90;;;;;;4895552;29;20124;-86
2023/03/03 10:52:38;;;;;;;4.97;2.40;;;3.10;99.80;;;;;;4895066;29;20032;-88
2023/03/03 10:55:25;;;;;;;3.83;2.30;;;3.10;99.50;;;;;;4885822;29;20147;-90
2023/03/03 10:58:37;;;;;;;5.38;2.28;;;2.90;99.40;;;;;;4896203;29;20033;-89
2023/03/03 11:01:45;;;;;;;7.53;2.00;;;2.80;99.00;;;;;;4943725;28;20039;-86
2023/03/03 11:04:44;;;;;;;4.57;1.50;;;2.70;99.20;;;;;;4955203;29;20051;-90
2023/03/03 11:07:39;;;;;;;7.90;1.90;;;2.70;99.00;;;;;;4942499;28;20023;-90
2023/03/03 11:10:27;;;;;;;3.75;1.73;;;2.50;99.00;;;;;;4949302;29;20144;-86
2023/03/03 11:13:09;;;;;;;8.60;2.17;;;2.50;99.10;;;;;;4950484;29;20032;-89
2023/03/03 11:16:13;;;;;;;5.45;1.73;;;2.50;99.00;;;;;;4969354;29;20481;-89
2023/03/03 11:19:01;;;;;;;4.18;1.70;;;2.60;98.70;;;;;;4958735;28;20028;-92
2023/03/03 11:21:57;;;;;;;7.07;2.17;;;2.70;98.70;;;;;;4941422;29;20133;-87
2023/03/03 11:24:49;;;;;;;5.68;2.03;;;2.90;98.50;;;;;;4962435;29;20092;-89
2023/03/03 11:27:29;;;;;;;8.75;3.05;;;3.00;98.50;;;;;;4981137;28;20079;-90
2023/03/03 11:30:17;;;;;;;3.95;1.85;;;3.10;98.50;;;;;;4947566;29;20063;-86
2023/03/03 11:32:54;;;;;;;4.88;2.55;;;3.20;98.40;;;;;;4942600;29;20091;-86
2023/03/03 11:35:38;;;;;;;4.05;1.73;;;3.10;98.00;;;;;;4934421;29;20116;-87
2023/03/03 11:38:34;;;;;;;3.58;1.02;;;2.90;97.80;;;;;;4945658;29;20422;-92
2023/03/03 11:41:30;;;;;;;6.07;1.80;;;2.70;97.70;;;;;;4946091;29;20023;-90
2023/03/03 11:44:08;;;;;;;5.55;2.22;;;2.50;97.90;;;;;;4953258;28;20031;-86
2023/03/03 11:46:54;;;;;;;5.43;1.60;;;2.40;98.00;;;;;;4923753;29;20019;-89
2023/03/03 11:49:24;;;;;;;6.30;1.60;;;2.40;98.00;;;;;;4957247;28;20497;-87
2023/03/03 11:52:18;;;;;;;5.43;1.27;;;2.50;97.90;;;;;;4946647;29;20027;-89
2023/03/03 11:55:19;;;;;;;3.03;1.33;;;2.60;98.00;;;;;;4959966;28;20029;-89
2023/03/03 11:58:17;;;;;;;4.32;1.90;;;2.60;97.90;;;;;;4979239;28;20075;-90
2023/03/03 12:01:01;;;;;;;4.15;2.30;;;2.70;98.00;;;;;;4935550;29;20044;-89
2023/03/03 12:03:35;;;;;;;2.85;1.88;;;2.80;97.50;;;;;;4952088;28;20023;-90
2023/03/03 12:06:07;;;;;;;10.25;1.92;;;2.80;97.00;;;;;;4958647;28;20022;-86
2023/03/03 12:08:46;;;;;;;5.60;1.77;;;2.80;97.10;;;;;;4960916;29;20039;-88
2023/03/03 12:11:19;;;;;;;4.80;2.00;;;2.90;96.90;;;;;;4969118;28;20066;-86
2023/03/03 12:14:33;;;;;;;5.47;2.25;;;2.90;96.40;;;;;;4962236;28;20034;-87
2023/03/03 12:17:05;;;;;;;5.07;2.20;;;2.70;96.10;;;;;;4938146;29;20036;-89
2023/03/03 12:20:03;;;;;;;3.63;1.77;;;2.60;96.00;;;;;;4922555;29;20409;-90
2023/03/03 12:22:33;;;;;;;4.28;1.60;;;2.50;96.10;;;;;;4880257;29;20046;-89
2023/03/03 12:25:04;;;;;;;3.00;1.40;;;2.50;96.20;;;;;;4913118;29;20414;-87
2023/03/03 12:27:37;;;;;;;2.65;1.15;;;2.50;96.00;;;;;;4906672;29;20044;-85
2023/03/03 12:30:20;;;;;;;6.45;1.98;;;2.50;96.00;;;;;;4904837;29;20020;-84
2023/03/03 12:33:29;;;;;;;4.38;1.70;;;2.60;96.00;;;;;;4914714;29;20032;-87
2023/03/03 12:36:00;;;;;;;2.95;1.73;;;2.70;96.20;;;;;;4907980;29;20055;-87
2023/03/03 12:38:45;;;;;;;5.80;1.83;;;2.80;96.10;;;;;;4907541;29;20053;-90
2023/03/03 12:41:28;;;;;;;5.57;2.13;;;2.90;95.90;;;;;;4925864;28;20541;-90
2023/03/03 12:43:57;;;;;;;7.13;2.50;;;2.90;95.80;;;;;;4921969;29;20032;-91
2023/03/03 12:46:43;;;;;;;4.85;2.05;;;2.80;95.70;;;;;;4949231;29;20031;-91
2023/03/03 12:49:09;;;;;;;5.95;1.42;;;2.70;95.80;;;;;;4965761;28;20050;-90
2023/03/03 12:52:02;;;;;;;3.95;2.03;;;2.70;96.00;;;;;;4984727;28;20015;-88
2023/03/03 12:54:56;;;;;;;4.82;1.85;;;2.70;96.10;;;;;;4982106;28;20023;-90
2023/03/03 12:58:01;;;;;;;3.88;2.00;;;2.60;96.20;;;;;;4955743;29;20039;-92
2023/03/03 13:00:54;;;;;;;5.00;1.83;;;2.60;96.40;;;;;;4951881;28;20016;-88
2023/03/03 13:03:26;;;;;;;3.75;2.10;;;2.60;96.40;;;;;;4953755;29;20030;-91
2023/03/03 13:06:25;;;;;;;3.92;2.05;;;2.60;96.20;;;;;;4954876;28;20342;-88
2023/03/03 13:09:29;;;;;;;4.82;1.63;;;2.50;96.20;;;;;;4952181;29;20043;-85
2023/03/03 13:12:14;;;;;;;5.32;1.67;;;2.50;96.30;;;;;;4979216;28;20103;-86
2023/03/03 13:14:48;;;;;;;5.32;2.40;;;2.60;96.30;;;;;;4978133;28;20047;-91
2023/03/03 13:17:32;;;;;;;2.80;1.63;;;2.60;96.30;;;;;;4953485;29;20034;-90
2023/03/03 13:20:49;;;;;;;7.25;1.83;;;2.70;96.30;;;;;;4974159;28;20007;-92
2023/03/03 13:23:46;;;;;;;5.90;2.30;;;2.70;96.20;;;;;;4952759;28;20556;-89
2023/03/03 13:26:21;;;;;;;9.05;3.40;;;2.70;96.10;;;;;;4965433;28;20051;-91
2023/03/03 13:29:07;;;;;;;8.40;1.95;;;2.50;96.20;;;;;;4981809;28;20050;-90
2023/03/03 13:31:38;;;;;;;5.05;2.85;;;2.50;96.40;;;;;;4972209;29;20028;-93
2023/03/03 13:34:07;;;;;;;3.25;2.45;;;2.50;96.50;;;;;;4968566;29;20030;-93
2023/03/03 13:37:03;;;;;;;4.35;2.92;;;2.60;96.40;;;;;;4951266;29;20032;-88
2023/03/03 13:39:33;;;;;;;9.25;2.10;;;2.70;96.40;;;;;;4948482;29;20123;-90
2023/03/03 13:42:01;;;;;;;8.52;2.35;;;2.70;96.10;;;;;;4940409;29;20038;-87
2023/03/03 13:44:44;;;;;;;8.43;2.20;;;2.70;96.00;;;;;;4935727;29;20024;-85
2023/03/03 13:47:48;;;;;;;11.63;2.38;;;2.70;96.00;;;;;;4940241;29;20548;-88
2023/03/03 13:50:26;;;;;;;6.50;2.38;;;2.60;95.80;;;;;;4926200;28;20076;-87
2023/03/03 13:53:27;;;;;;;5.22;2.45;;;2.70;95.80;;;;;;4942798;29;20057;-86
2023/03/03 13:56:31;;;;;;;4.75;2.13;;;2.60;95.70;;;;;;5000807;23;20052;-90
2023/03/03 13:59:27;;;;;;;6.47;2.60;;;2.50;95.40;;;;;;4921626;29;20032;-86
2023/03/03 14:02:02;;;;;;;9.10;1.70;;;2.50;95.50;;;;;;4921653;29;20505;-86
2023/03/03 14:05:04;;;;;;;4.65;1.85;;;2.60;95.30;;;;;;4922082;29;20032;-88
2023/03/03 14:07:44;;;;;;;4.32;2.00;;;2.60;95.20;;;;;;4872808;29;20099;-89
2023/03/03 14:10:20;;;;;;;2.88;2.10;;;2.60;95.00;;;;;;4915075;29;20028;-89
2023/03/03 14:13:08;;;;;;;9.05;2.40;;;2.50;94.90;;;;;;4908309;29;20135;-88
2023/03/03 14:15:40;;;;;;;5.07;2.00;;;2.50;95.00;;;;;;4901452;29;20126;-83
2023/03/03 14:18:37;;;;;;;5.95;1.83;;;2.60;94.90;;;;;;4885466;29;20189;-83
2023/03/03 14:21:08;;;;;;;;;;;2.50;94.70;;;;;;4893407;29;20025;-82
2023/03/03 14:24:04;;;;;;;4.88;1.63;;;2.50;94.80;;;;;;4902460;29;19907;-83
2023/03/03 14:26:30;;;;;;;8.18;2.83;;;2.50;94.60;;;;;;4923944;29;20028;-87
2023/03/03 14:29:20;;;;;;;5.35;1.73;;;2.40;94.50;;;;;;4882355;29;20033;-89
2023/03/03 14:31:46;;;;;;;4.53;1.80;;;2.50;94.40;;;;;;4900439;29;20043;-91
2023/03/03 14:34:29;;;;;;;3.60;2.15;;;2.40;94.20;;;;;;4913473;29;20029;-92
2023/03/03 14:37:25;;;;;;;5.72;2.60;;;2.40;94.20;;;;;;4903048;29;20039;-89
2023/03/03 14:40:19;;;;;;;3.85;1.73;;;2.30;94.20;;;;;;4904416;29;20028;-88
2023/03/03 14:42:54;;;;;;;10.75;3.90;;;2.20;94.00;;;;;;4912447;29;20095;-90
2023/03/03 14:45:55;;;;;;;4.85;1.92;;;2.10;94.00;;;;;;4932703;29;20039;-90
2023/03/03 14:49:14;;;;;;;5.28;1.88;;;2.10;94.00;;;;;;4933215;29;20059;-91
2023/03/03 14:51:44;;;;;;;5.35;1.90;;;2.10;94.10;;;;;;4927074;29;20512;-87
2023/03/03 14:54:25;;;;;;;4.63;1.98;;;2.10;93.90;;;;;;4935884;29;20031;-87
2023/03/03 14:57:14;;;;;;;7.07;3.40;;;2.10;94.00;;;;;;4909339;29;20062;-87